Huvudsida
METAR-TAF:

METAR-TAF

Flygplatser :

Teller, Alaska, USA

latitud: 65-14-25N, longitud: 166-20-22W, höjd: 90 m

Aktuellt väderrapport

Denna rapport gjordes för 10 minuter sedan, klockan 17:56 UTC
Vind 13 kt från sydväst
Temperatur 3°C
Fuktighet 93%
Tryck 1025 hPa
Sikt: 4.0 km
Mulet på en höjd av 300 ft
okänt, fuktdis

METAR: PATE 141756Z AUTO 23013KT 2 1/2SM UP BR OVC003 03/02 A3026 RMK AO2 SLP253 P0000 60000 T00280022 10033 20028 53008 TSNO

Tid: 10:06 (18:06 UTC)


TAF: saknas

Aktuella väderrapporter och prognoser från 4000 flygplatser (METAR- och TAF-rapporter).

De tillgängliga stationerna syns som gula och röda prickar på kartan.

För musen över prickarna för att se namnen på stationerna.

Klicka sedan för att få väderrapporter och prognoser.

För att ändra kartan: Klicka på de gröna knapparna med ett svart kors på för att zooma in; den gröna knappen med ett streck på för att zooma ut; eller på de gröna pilarna för angränsande kartor.


METAR-TAF: